Time;durP1;ratioP1;P1;durP2;ratioP2;P2;SDS_P1;SDS_P2;PMS_P1;PMS_P2;Temp;Humidity;BMP_temperature;BMP_pressure;BME280_temperature;BME280_humidity;BME280_pressure;Samples;Min_cycle;Max_cycle;Signal;HPM_P1;HPM_P2
2021/03/06 00:00:18;;;;;;;24.17;15.10;;;11.30;61.70;;;;;;4959003;28;20015;-77
2021/03/06 00:02:44;;;;;;;23.35;14.00;;;11.30;61.70;;;;;;4957239;28;20019;-75
2021/03/06 00:05:11;;;;;;;19.02;13.50;;;11.40;62.60;;;;;;4975914;28;20030;-77
2021/03/06 00:07:37;;;;;;;54.65;30.90;;;11.40;62.20;;;;;;4975753;28;20412;-76
2021/03/06 00:10:05;;;;;;;62.38;37.38;;;11.40;63.60;;;;;;4958832;28;20034;-77
2021/03/06 00:12:31;;;;;;;47.15;30.38;;;11.50;65.70;;;;;;4957590;28;20368;-77
2021/03/06 00:14:57;;;;;;;35.85;23.33;;;11.60;65.40;;;;;;4973046;28;20035;-76
2021/03/06 00:17:22;;;;;;;31.42;21.33;;;11.60;65.70;;;;;;4968657;28;20039;-78
2021/03/06 00:19:48;;;;;;;31.95;20.77;;;11.30;65.90;;;;;;4957833;28;20026;-75
2021/03/06 00:22:14;;;;;;;29.33;20.20;;;11.10;66.40;;;;;;4974219;28;20050;-76
2021/03/06 00:24:40;;;;;;;34.35;20.85;;;11.10;66.90;;;;;;4976117;28;20027;-76
2021/03/06 00:27:06;;;;;;;28.10;17.23;;;11.20;67.30;;;;;;4975463;28;20147;-76
2021/03/06 00:29:31;;;;;;;26.70;18.40;;;10.90;67.00;;;;;;4975900;28;20023;-77
2021/03/06 00:31:57;;;;;;;26.95;18.55;;;11.00;67.20;;;;;;4975274;28;20098;-75
2021/03/06 00:34:23;;;;;;;31.08;19.75;;;11.20;67.70;;;;;;4975259;28;20061;-77
2021/03/06 00:36:49;;;;;;;31.48;18.75;;;10.80;68.90;;;;;;4975352;28;20483;-76
2021/03/06 00:39:14;;;;;;;28.88;19.13;;;11.00;69.20;;;;;;4975609;28;20086;-76
2021/03/06 00:41:40;;;;;;;31.20;19.95;;;11.30;69.20;;;;;;4972177;28;20031;-76
2021/03/06 00:44:06;;;;;;;31.10;21.00;;;11.30;69.50;;;;;;4965666;28;20488;-76
2021/03/06 00:46:32;;;;;;;34.50;20.90;;;11.30;69.80;;;;;;4965240;28;20043;-76
2021/03/06 00:48:58;;;;;;;37.03;20.92;;;11.10;69.90;;;;;;4971929;28;20023;-76
2021/03/06 00:51:24;;;;;;;38.50;20.88;;;10.80;71.00;;;;;;4975493;28;20372;-76
2021/03/06 00:53:50;;;;;;;30.70;19.02;;;10.90;71.50;;;;;;4969611;28;20031;-77
2021/03/06 00:56:15;;;;;;;30.92;20.05;;;10.70;72.20;;;;;;4955984;29;20034;-77
2021/03/06 00:58:41;;;;;;;34.15;21.27;;;10.80;74.40;;;;;;4970594;28;20025;-76
2021/03/06 01:01:11;;;;;;;35.53;21.77;;;10.80;75.40;;;;;;4974120;28;20718;-76
2021/03/06 01:03:36;;;;;;;32.47;20.52;;;10.80;75.50;;;;;;4974305;28;20023;-76
2021/03/06 01:06:03;;;;;;;30.15;20.23;;;10.80;75.30;;;;;;4974739;28;20066;-76
2021/03/06 01:08:29;;;;;;;30.27;21.25;;;11.00;75.60;;;;;;4957312;28;20080;-77
2021/03/06 01:10:55;;;;;;;38.67;21.33;;;11.00;75.60;;;;;;4975246;28;20380;-77
2021/03/06 01:13:22;;;;;;;33.80;19.60;;;11.10;76.40;;;;;;4974194;28;20105;-75
2021/03/06 01:15:47;;;;;;;34.83;19.80;;;11.00;76.50;;;;;;4975052;28;20025;-75
2021/03/06 01:18:13;;;;;;;41.10;20.40;;;11.10;76.90;;;;;;4974263;28;20023;-75
2021/03/06 01:20:41;;;;;;;34.42;20.67;;;11.10;76.70;;;;;;4957086;28;20098;-75
2021/03/06 01:23:07;;;;;;;38.25;21.42;;;10.90;76.20;;;;;;4974152;28;20037;-78
2021/03/06 01:25:33;;;;;;;29.98;19.17;;;10.80;77.80;;;;;;4974363;28;20023;-75
2021/03/06 01:27:59;;;;;;;31.38;19.27;;;10.90;77.90;;;;;;4956171;28;20026;-76
2021/03/06 01:30:25;;;;;;;35.60;20.67;;;11.00;77.70;;;;;;4974673;28;20022;-76
2021/03/06 01:32:52;;;;;;;38.28;19.27;;;11.00;78.40;;;;;;4972752;28;20026;-78
2021/03/06 01:35:24;;;;;;;32.97;19.20;;;11.10;78.90;;;;;;4973017;28;20093;-78
2021/03/06 01:37:50;;;;;;;30.38;18.25;;;11.10;78.80;;;;;;4972982;28;20077;-77
2021/03/06 01:40:21;;;;;;;28.80;20.13;;;10.90;77.40;;;;;;4973357;28;20093;-77
2021/03/06 01:42:47;;;;;;;35.00;20.25;;;9.80;80.20;;;;;;4955305;28;20049;-76
2021/03/06 01:45:13;;;;;;;33.47;19.25;;;9.50;82.80;;;;;;4972943;28;20075;-77
2021/03/06 01:47:39;;;;;;;40.22;23.88;;;9.50;84.40;;;;;;4972401;28;20435;-77
2021/03/06 01:50:07;;;;;;;33.00;20.33;;;9.50;84.10;;;;;;4954953;28;20465;-79
2021/03/06 01:52:33;;;;;;;34.35;21.50;;;9.50;85.50;;;;;;4972967;28;20022;-77
2021/03/06 01:55:00;;;;;;;58.83;34.78;;;9.80;87.40;;;;;;4973250;28;20035;-78
2021/03/06 01:57:26;;;;;;;47.92;28.45;;;10.70;82.20;;;;;;4972632;28;20023;-77
2021/03/06 01:59:53;;;;;;;49.60;32.03;;;10.90;79.80;;;;;;4972576;28;20412;-77
2021/03/06 02:02:19;;;;;;;80.53;48.35;;;11.10;78.40;;;;;;4959546;28;20015;-78
2021/03/06 02:04:45;;;;;;;69.47;40.30;;;11.10;77.30;;;;;;4955143;28;20094;-76
2021/03/06 02:07:11;;;;;;;37.58;24.25;;;11.10;76.20;;;;;;4972758;28;20416;-76
2021/03/06 02:09:36;;;;;;;36.75;24.08;;;11.10;76.00;;;;;;4971008;28;20027;-76
2021/03/06 02:12:19;;;;;;;85.30;51.67;;;11.10;75.70;;;;;;4972693;28;20037;-76
2021/03/06 02:15:14;;;;;;;146.25;81.80;;;11.40;74.80;;;;;;4970915;28;20038;-76
2021/03/06 02:18:03;;;;;;;54.78;33.75;;;11.30;74.40;;;;;;4955240;28;20037;-76
2021/03/06 02:20:44;;;;;;;33.05;21.17;;;11.40;75.20;;;;;;4972354;28;20022;-76
2021/03/06 02:23:47;;;;;;;31.02;20.08;;;11.40;74.40;;;;;;4952562;29;20023;-76
2021/03/06 02:26:50;;;;;;;30.98;19.13;;;11.40;75.00;;;;;;4951802;28;20038;-76
2021/03/06 02:29:31;;;;;;;30.55;19.38;;;11.30;74.80;;;;;;4954801;28;20456;-75
2021/03/06 02:31:59;;;;;;;28.13;18.40;;;11.10;76.10;;;;;;4951790;29;20070;-76
2021/03/06 02:34:30;;;;;;;29.15;17.67;;;11.10;76.60;;;;;;4952321;29;20125;-76
2021/03/06 02:36:57;;;;;;;;;;;11.20;77.40;;;;;;4953432;29;20091;-78
2021/03/06 02:39:26;;;;;;;27.88;18.27;;;11.20;77.40;;;;;;4952317;29;19911;-76
2021/03/06 02:41:54;;;;;;;25.58;16.50;;;11.10;77.10;;;;;;4956685;28;20053;-76
2021/03/06 02:44:21;;;;;;;28.02;18.60;;;11.00;77.00;;;;;;4964243;28;20050;-77
2021/03/06 02:46:47;;;;;;;29.35;17.15;;;10.90;77.00;;;;;;4967004;28;20346;-77
2021/03/06 02:49:13;;;;;;;28.88;17.55;;;11.00;77.20;;;;;;4955106;28;20037;-77
2021/03/06 02:51:40;;;;;;;24.13;16.90;;;10.90;78.00;;;;;;4953501;29;20027;-78
2021/03/06 02:54:08;;;;;;;25.75;16.67;;;10.90;78.40;;;;;;4953929;29;20039;-76
2021/03/06 02:56:35;;;;;;;29.85;15.98;;;10.80;78.20;;;;;;4937016;29;20369;-77
2021/03/06 02:59:06;;;;;;;27.70;16.05;;;10.80;78.30;;;;;;4952089;29;20605;-77
2021/03/06 03:02:06;;;;;;;27.98;16.13;;;10.90;78.20;;;;;;4953786;29;20560;-77
2021/03/06 03:04:47;;;;;;;27.10;15.50;;;11.00;77.40;;;;;;4968015;28;20028;-77
2021/03/06 03:07:27;;;;;;;23.65;13.93;;;10.70;77.50;;;;;;4973394;28;20023;-76
2021/03/06 03:09:59;;;;;;;20.10;13.48;;;10.70;76.70;;;;;;4973400;28;20537;-76
2021/03/06 03:13:02;;;;;;;22.17;13.68;;;10.90;76.30;;;;;;4973380;28;20515;-77
2021/03/06 03:15:36;;;;;;;25.13;14.93;;;10.90;75.80;;;;;;4972912;28;20034;-75
2021/03/06 03:18:04;;;;;;;23.55;15.32;;;10.50;77.50;;;;;;4973105;28;20054;-75
2021/03/06 03:20:48;;;;;;;24.90;14.80;;;10.30;78.90;;;;;;4972961;28;20025;-77
2021/03/06 03:23:40;;;;;;;20.30;13.73;;;10.10;79.60;;;;;;4973134;28;20139;-75
2021/03/06 03:26:11;;;;;;;27.55;16.13;;;10.10;80.50;;;;;;4972816;28;20042;-76
2021/03/06 03:28:40;;;;;;;24.67;15.93;;;10.40;80.60;;;;;;4973357;28;20019;-75
2021/03/06 03:31:07;;;;;;;27.83;19.08;;;10.60;82.00;;;;;;4972839;28;20028;-75
2021/03/06 03:33:34;;;;;;;35.90;20.00;;;9.90;84.50;;;;;;4973275;28;20029;-77
2021/03/06 03:36:04;;;;;;;31.15;18.83;;;9.90;86.60;;;;;;4971535;28;20033;-76
2021/03/06 03:38:31;;;;;;;32.28;17.92;;;9.80;87.90;;;;;;4973174;28;20019;-75
2021/03/06 03:40:59;;;;;;;28.13;18.23;;;10.00;88.30;;;;;;4972464;28;20054;-75
2021/03/06 03:43:26;;;;;;;28.15;17.88;;;10.20;87.90;;;;;;4972820;28;20033;-75
2021/03/06 03:45:53;;;;;;;29.55;18.73;;;10.30;87.00;;;;;;4971351;28;20027;-76
2021/03/06 03:48:20;;;;;;;27.75;16.90;;;10.20;87.70;;;;;;4972822;28;20019;-77
2021/03/06 03:50:45;;;;;;;26.75;14.50;;;10.30;89.20;;;;;;4972770;28;20027;-76
2021/03/06 03:53:12;;;;;;;20.90;13.35;;;10.10;89.70;;;;;;4972840;28;20034;-76
2021/03/06 03:55:39;;;;;;;21.10;12.73;;;9.90;89.60;;;;;;4972584;28;20035;-76
2021/03/06 03:58:05;;;;;;;21.13;13.35;;;9.90;89.20;;;;;;4973033;28;20142;-76
2021/03/06 04:00:30;;;;;;;20.10;12.90;;;9.90;89.00;;;;;;4970581;28;20030;-77
2021/03/06 04:03:05;;;;;;;17.40;12.43;;;9.80;89.30;;;;;;4973025;28;20076;-77
2021/03/06 04:05:31;;;;;;;23.30;11.73;;;9.80;89.30;;;;;;4971270;28;20033;-77
2021/03/06 04:07:56;;;;;;;18.90;12.43;;;9.90;88.90;;;;;;4972870;28;20023;-77
2021/03/06 04:10:24;;;;;;;18.80;12.32;;;9.80;89.80;;;;;;4971214;28;20049;-76
2021/03/06 04:12:52;;;;;;;18.65;12.65;;;9.90;89.00;;;;;;4973231;28;20021;-77
2021/03/06 04:15:21;;;;;;;22.55;13.80;;;10.00;89.10;;;;;;4972014;28;20039;-77
2021/03/06 04:17:47;;;;;;;22.05;14.32;;;9.90;89.20;;;;;;4972874;28;20011;-76
2021/03/06 04:20:16;;;;;;;19.70;12.70;;;9.90;89.80;;;;;;4972095;28;20022;-76
2021/03/06 04:22:42;;;;;;;19.98;12.70;;;9.90;90.30;;;;;;4959790;28;20479;-77
2021/03/06 04:25:08;;;;;;;17.75;11.88;;;9.90;90.60;;;;;;4953134;28;20039;-78
2021/03/06 04:27:35;;;;;;;19.67;12.30;;;9.90;91.20;;;;;;4955324;28;20023;-78
2021/03/06 04:30:04;;;;;;;21.85;12.32;;;9.90;91.10;;;;;;4956241;29;20023;-77
2021/03/06 04:32:29;;;;;;;18.90;11.70;;;10.10;91.00;;;;;;4939744;29;20114;-76
2021/03/06 04:34:55;;;;;;;18.50;12.73;;;9.80;91.20;;;;;;4956657;29;20440;-76
2021/03/06 04:37:21;;;;;;;19.17;12.27;;;9.80;91.80;;;;;;4957017;29;20446;-78
2021/03/06 04:39:47;;;;;;;18.73;11.85;;;9.90;92.10;;;;;;4957051;29;20027;-78
2021/03/06 04:42:12;;;;;;;17.00;11.40;;;10.10;92.00;;;;;;4956630;29;20109;-78
2021/03/06 04:44:38;;;;;;;19.48;12.70;;;10.10;92.00;;;;;;4956382;29;20043;-77
2021/03/06 04:47:05;;;;;;;19.38;11.55;;;10.10;91.80;;;;;;4956605;29;20037;-76
2021/03/06 04:49:31;;;;;;;16.80;10.75;;;10.00;92.10;;;;;;4957165;29;20090;-78
2021/03/06 04:51:57;;;;;;;19.23;11.60;;;9.60;93.00;;;;;;4954872;29;20240;-76
2021/03/06 04:54:23;;;;;;;22.95;12.55;;;9.70;92.90;;;;;;4956963;29;20043;-76
2021/03/06 04:56:50;;;;;;;22.83;12.65;;;9.70;93.10;;;;;;4956005;29;20028;-77
2021/03/06 04:59:16;;;;;;;16.73;12.05;;;9.30;93.30;;;;;;4956085;29;20039;-78
2021/03/06 05:01:42;;;;;;;17.45;12.15;;;9.30;94.40;;;;;;4955709;29;20019;-77
2021/03/06 05:04:08;;;;;;;18.45;12.15;;;9.20;94.30;;;;;;4956284;29;20377;-80
2021/03/06 05:06:33;;;;;;;22.27;13.48;;;9.50;94.00;;;;;;4955885;29;20023;-78
2021/03/06 05:08:59;;;;;;;16.27;12.48;;;9.60;93.50;;;;;;4956355;29;20047;-78
2021/03/06 05:11:25;;;;;;;22.15;13.57;;;9.60;93.10;;;;;;4955866;29;20031;-77
2021/03/06 05:13:51;;;;;;;24.15;14.18;;;9.50;99.90;;;;;;4956358;29;20493;-76
2021/03/06 05:16:16;;;;;;;28.88;13.35;;;9.10;99.90;;;;;;4955788;29;20392;-75
2021/03/06 05:18:42;;;;;;;23.65;13.40;;;8.90;99.90;;;;;;4955686;29;20062;-76
2021/03/06 05:21:09;;;;;;;24.38;10.45;;;9.10;99.90;;;;;;4955852;29;20019;-76
2021/03/06 05:23:35;;;;;;;16.75;7.53;;;8.90;99.90;;;;;;4974961;28;20022;-77
2021/03/06 05:26:01;;;;;;;19.52;6.72;;;8.50;99.90;;;;;;4975176;28;20034;-79
2021/03/06 05:28:26;;;;;;;7.65;4.55;;;8.30;99.90;;;;;;4975379;28;20488;-78
2021/03/06 05:30:52;;;;;;;9.43;4.28;;;7.80;99.90;;;;;;4975021;28;20648;-78
2021/03/06 05:33:18;;;;;;;7.18;3.92;;;7.70;99.90;;;;;;4975155;28;20018;-75
2021/03/06 05:35:44;;;;;;;6.43;4.07;;;7.60;99.90;;;;;;4957285;28;20476;-77
2021/03/06 05:38:11;;;;;;;20.30;4.07;;;7.10;99.90;;;;;;4974261;28;20022;-78
2021/03/06 05:40:46;;;;;;;5.80;4.40;;;7.10;99.90;;;;;;4974322;28;20029;-77
2021/03/06 05:43:13;;;;;;;12.77;3.80;;;7.20;99.90;;;;;;4974587;28;20019;-77
2021/03/06 05:45:39;;;;;;;12.15;4.00;;;7.10;99.90;;;;;;4974875;28;20046;-76
2021/03/06 05:48:05;;;;;;;16.20;3.70;;;7.00;99.90;;;;;;4974779;28;20643;-79
2021/03/06 05:50:31;;;;;;;6.93;3.42;;;7.10;99.90;;;;;;4975118;28;20680;-79
2021/03/06 05:52:58;;;;;;;9.70;3.58;;;6.90;99.90;;;;;;4956869;28;20057;-74
2021/03/06 05:55:26;;;;;;;3.72;3.17;;;6.90;99.90;;;;;;4974360;28;20393;-76
2021/03/06 05:57:56;;;;;;;5.35;3.20;;;6.80;99.90;;;;;;4974096;28;20019;-79
2021/03/06 06:00:23;;;;;;;7.57;3.35;;;6.90;99.90;;;;;;4974365;28;20026;-77
2021/03/06 06:02:53;;;;;;;4.88;3.58;;;6.60;99.90;;;;;;4974095;28;20051;-77
2021/03/06 06:05:19;;;;;;;7.93;3.17;;;6.60;99.90;;;;;;4957088;28;20461;-77
2021/03/06 06:07:46;;;;;;;3.38;2.92;;;6.70;99.90;;;;;;4973833;28;20042;-77
2021/03/06 06:10:13;;;;;;;6.05;3.30;;;6.60;99.90;;;;;;4974039;28;20053;-77
2021/03/06 06:12:42;;;;;;;9.63;4.13;;;6.50;99.90;;;;;;4973878;28;20354;-76
2021/03/06 06:15:10;;;;;;;3.53;3.22;;;6.50;99.90;;;;;;4973911;28;20105;-77
2021/03/06 06:17:36;;;;;;;3.85;3.13;;;6.50;99.90;;;;;;4973513;28;20368;-75
2021/03/06 06:20:02;;;;;;;6.30;3.33;;;6.30;99.90;;;;;;4972975;28;20487;-76
2021/03/06 06:22:29;;;;;;;3.90;3.45;;;6.20;99.90;;;;;;4947911;29;20480;-76
2021/03/06 06:24:55;;;;;;;6.55;3.90;;;6.30;99.90;;;;;;4955168;28;20023;-77
2021/03/06 06:27:32;;;;;;;5.93;3.83;;;6.30;99.90;;;;;;4953358;29;20428;-78
2021/03/06 06:30:00;;;;;;;5.82;3.15;;;6.30;99.90;;;;;;4951764;29;20358;-77
2021/03/06 06:32:39;;;;;;;9.32;3.72;;;6.20;99.90;;;;;;4954034;29;20015;-78
2021/03/06 06:35:10;;;;;;;4.40;3.50;;;6.10;99.90;;;;;;4952879;29;20126;-78
2021/03/06 06:37:36;;;;;;;7.35;3.70;;;6.40;99.90;;;;;;4954249;29;20368;-76
2021/03/06 06:40:23;;;;;;;5.65;3.70;;;6.20;99.90;;;;;;4954878;29;20500;-75
2021/03/06 06:42:48;;;;;;;3.65;3.22;;;6.10;99.90;;;;;;4954448;29;20177;-76
2021/03/06 06:45:16;;;;;;;3.53;3.17;;;6.10;99.90;;;;;;4954671;29;20507;-78
2021/03/06 06:47:44;;;;;;;4.68;3.97;;;6.20;99.90;;;;;;4937236;29;20027;-78
2021/03/06 06:50:12;;;;;;;6.65;4.05;;;6.20;99.90;;;;;;4954326;28;20027;-78
2021/03/06 06:52:44;;;;;;;4.78;3.53;;;6.10;99.90;;;;;;4954231;29;20030;-78
2021/03/06 06:55:12;;;;;;;3.92;3.53;;;6.00;99.90;;;;;;4952653;29;20046;-76
2021/03/06 06:57:54;;;;;;;4.20;3.80;;;6.00;99.90;;;;;;4954122;29;20365;-78
2021/03/06 07:00:20;;;;;;;4.68;4.00;;;6.20;99.90;;;;;;4937130;29;20634;-77
2021/03/06 07:02:56;;;;;;;7.72;3.95;;;6.20;99.90;;;;;;4953997;29;20027;-77
2021/03/06 07:05:36;;;;;;;5.28;3.50;;;6.10;99.90;;;;;;4953835;29;20023;-78
2021/03/06 07:08:23;;;;;;;6.18;4.05;;;6.10;99.90;;;;;;4952535;29;20034;-76
2021/03/06 07:10:50;;;;;;;5.82;4.03;;;6.10;99.90;;;;;;4953881;29;20031;-76
2021/03/06 07:13:18;;;;;;;4.95;3.78;;;6.00;99.90;;;;;;4953761;29;20054;-79
2021/03/06 07:15:52;;;;;;;4.97;3.88;;;6.30;99.90;;;;;;4952616;29;20027;-76
2021/03/06 07:18:19;;;;;;;7.20;3.90;;;6.20;99.90;;;;;;4953583;29;20028;-77
2021/03/06 07:20:46;;;;;;;4.93;3.95;;;6.10;99.90;;;;;;4954153;29;20381;-77
2021/03/06 07:23:25;;;;;;;6.25;4.15;;;6.10;99.90;;;;;;4964836;28;20029;-76
2021/03/06 07:25:55;;;;;;;4.10;3.70;;;6.10;99.90;;;;;;4973174;28;20047;-78
2021/03/06 07:28:22;;;;;;;4.93;4.30;;;6.10;99.90;;;;;;4973256;28;20078;-78
2021/03/06 07:30:48;;;;;;;5.70;4.20;;;6.00;99.90;;;;;;4973159;28;20061;-77
2021/03/06 07:33:17;;;;;;;5.72;4.35;;;6.10;99.90;;;;;;4972580;28;20019;-78
2021/03/06 07:35:44;;;;;;;9.63;4.20;;;6.40;99.90;;;;;;4971833;28;20057;-77
2021/03/06 07:38:17;;;;;;;4.63;3.97;;;6.00;99.90;;;;;;4972546;28;20026;-76
2021/03/06 07:40:48;;;;;;;4.35;3.78;;;6.00;99.90;;;;;;4973305;28;20030;-79
2021/03/06 07:43:20;;;;;;;5.22;4.45;;;6.00;99.90;;;;;;4972530;28;20025;-79
2021/03/06 07:45:51;;;;;;;5.03;4.50;;;6.20;99.90;;;;;;4973211;28;20030;-75
2021/03/06 07:48:21;;;;;;;5.65;3.83;;;6.00;99.90;;;;;;4955452;28;20023;-77
2021/03/06 07:50:48;;;;;;;4.72;4.13;;;6.20;99.90;;;;;;4973339;28;20019;-77
2021/03/06 07:53:16;;;;;;;4.30;3.90;;;6.10;99.90;;;;;;4972253;28;20349;-76
2021/03/06 07:55:42;;;;;;;5.93;4.30;;;6.20;99.90;;;;;;4973371;28;20065;-78
2021/03/06 07:58:17;;;;;;;4.35;3.88;;;6.20;99.90;;;;;;4972659;28;20022;-78
2021/03/06 08:00:42;;;;;;;5.60;4.43;;;6.10;99.90;;;;;;4955863;28;20027;-79
2021/03/06 08:03:35;;;;;;;6.28;4.13;;;6.30;99.90;;;;;;4974737;28;20019;-78
2021/03/06 08:06:05;;;;;;;6.32;4.95;;;6.20;99.90;;;;;;4975366;28;20060;-77
2021/03/06 08:08:34;;;;;;;5.35;4.15;;;6.70;99.90;;;;;;4974807;28;20044;-78
2021/03/06 08:11:23;;;;;;;4.75;3.72;;;6.60;99.90;;;;;;4976412;28;20085;-76
2021/03/06 08:13:52;;;;;;;5.47;4.47;;;6.30;99.90;;;;;;4975254;28;20018;-78
2021/03/06 08:16:23;;;;;;;6.07;4.55;;;6.30;99.90;;;;;;4975845;28;20027;-78
2021/03/06 08:18:50;;;;;;;6.60;4.72;;;6.50;99.90;;;;;;4974323;28;20048;-80
2021/03/06 08:21:27;;;;;;;5.75;4.93;;;6.60;99.90;;;;;;4976122;28;20019;-76
2021/03/06 08:24:15;;;;;;;5.93;4.60;;;6.50;99.90;;;;;;4957478;28;20037;-78
2021/03/06 08:27:02;;;;;;;5.53;4.35;;;6.50;99.90;;;;;;4955313;28;20031;-78
2021/03/06 08:29:28;;;;;;;6.97;5.40;;;6.70;99.90;;;;;;4955640;29;20038;-76
2021/03/06 08:32:03;;;;;;;6.38;4.80;;;6.90;99.90;;;;;;4955612;29;20015;-79
2021/03/06 08:34:40;;;;;;;8.85;5.13;;;7.00;99.90;;;;;;4955882;29;20090;-80
2021/03/06 08:37:15;;;;;;;5.72;4.78;;;6.90;99.90;;;;;;4955193;29;20087;-79
2021/03/06 08:39:46;;;;;;;6.32;4.88;;;6.80;99.90;;;;;;4956507;29;20046;-79
2021/03/06 08:42:13;;;;;;;9.48;4.68;;;7.00;99.90;;;;;;4956230;29;20031;-78
2021/03/06 08:44:39;;;;;;;5.97;4.68;;;7.50;99.90;;;;;;4927406;29;20393;-78
2021/03/06 08:47:07;;;;;;;5.88;4.63;;;7.70;99.90;;;;;;4936854;29;20024;-79
2021/03/06 08:49:34;;;;;;;5.85;4.65;;;7.40;99.80;;;;;;4919542;29;20030;-76
2021/03/06 08:52:00;;;;;;;7.55;4.85;;;7.10;99.90;;;;;;4937055;29;20044;-77
2021/03/06 08:54:36;;;;;;;7.18;5.07;;;7.50;99.90;;;;;;4936427;29;20062;-77
2021/03/06 08:57:02;;;;;;;6.78;4.95;;;8.10;99.10;;;;;;4937126;29;20035;-78
2021/03/06 08:59:39;;;;;;;6.82;4.80;;;8.20;98.30;;;;;;4937022;29;20027;-77
2021/03/06 09:02:18;;;;;;;6.80;4.50;;;8.30;97.90;;;;;;4937258;29;20030;-79
2021/03/06 09:04:44;;;;;;;7.90;4.72;;;8.60;97.30;;;;;;4934972;29;20016;-79
2021/03/06 09:07:31;;;;;;;5.82;4.78;;;8.90;96.50;;;;;;4936713;29;20346;-78
2021/03/06 09:10:31;;;;;;;8.93;5.00;;;9.00;96.20;;;;;;4919298;29;20038;-76
2021/03/06 09:13:00;;;;;;;12.50;5.30;;;9.10;95.40;;;;;;4936923;29;20028;-75
2021/03/06 09:15:37;;;;;;;8.13;5.03;;;9.30;94.80;;;;;;4936215;29;20027;-77
2021/03/06 09:18:08;;;;;;;8.55;4.60;;;9.60;94.30;;;;;;4936452;29;20034;-77
2021/03/06 09:20:59;;;;;;;7.22;5.13;;;9.80;93.60;;;;;;4935846;29;20019;-76
2021/03/06 09:23:37;;;;;;;7.85;4.90;;;9.90;93.60;;;;;;4948269;29;20019;-77
2021/03/06 09:26:16;;;;;;;9.95;5.80;;;9.70;92.30;;;;;;4935034;28;20501;-78
2021/03/06 09:28:49;;;;;;;9.30;6.03;;;8.40;93.50;;;;;;4930991;29;20130;-79
2021/03/06 09:31:27;;;;;;;13.00;9.05;;;8.70;94.30;;;;;;4935381;29;20035;-75
2021/03/06 09:33:54;;;;;;;6.22;4.80;;;8.70;94.80;;;;;;4950914;29;20023;-77
2021/03/06 09:36:22;;;;;;;6.18;3.97;;;8.20;94.20;;;;;;4938421;29;20038;-78
2021/03/06 09:38:54;;;;;;;5.90;4.25;;;8.40;93.50;;;;;;4952357;29;20114;-77
2021/03/06 09:41:33;;;;;;;7.28;4.47;;;8.40;92.50;;;;;;4938575;29;20038;-78
2021/03/06 09:44:01;;;;;;;8.88;4.80;;;8.40;92.70;;;;;;4941370;29;20035;-76
2021/03/06 09:46:31;;;;;;;7.97;4.40;;;8.60;91.40;;;;;;4953496;29;20122;-77
2021/03/06 09:49:09;;;;;;;8.15;4.72;;;8.70;90.00;;;;;;4954050;28;20094;-78
2021/03/06 09:51:47;;;;;;;7.50;4.78;;;8.30;90.80;;;;;;4937475;28;20981;-76
2021/03/06 09:54:15;;;;;;;5.70;4.50;;;8.80;92.00;;;;;;4952495;28;20035;-77
2021/03/06 09:56:55;;;;;;;6.22;4.22;;;8.40;89.80;;;;;;4953561;28;20102;-76
2021/03/06 09:59:50;;;;;;;5.78;4.22;;;8.20;88.10;;;;;;4953616;29;20038;-79
2021/03/06 10:02:20;;;;;;;25.08;12.30;;;8.00;90.30;;;;;;4942760;29;20035;-78
2021/03/06 10:04:47;;;;;;;7.97;5.57;;;9.20;89.70;;;;;;4953967;29;20467;-78
2021/03/06 10:07:13;;;;;;;10.13;6.55;;;8.50;85.20;;;;;;4953992;28;20759;-78
2021/03/06 10:09:40;;;;;;;44.60;26.08;;;8.70;87.50;;;;;;4969820;28;20034;-77
2021/03/06 10:12:27;;;;;;;9.40;5.60;;;9.10;87.00;;;;;;4952541;29;20418;-76
2021/03/06 10:14:56;;;;;;;6.78;4.38;;;9.20;81.30;;;;;;4951455;29;20083;-77
2021/03/06 10:17:24;;;;;;;9.77;4.80;;;8.60;83.00;;;;;;4934432;29;20027;-76
2021/03/06 10:19:52;;;;;;;5.75;4.65;;;8.60;82.40;;;;;;4953163;29;20027;-77
2021/03/06 10:22:22;;;;;;;6.63;4.82;;;8.50;82.70;;;;;;4936081;29;20492;-78
2021/03/06 10:25:03;;;;;;;7.18;5.05;;;8.80;83.20;;;;;;4953602;28;20125;-77
2021/03/06 10:27:39;;;;;;;6.65;5.05;;;9.20;80.10;;;;;;4970557;28;20423;-80
2021/03/06 10:30:27;;;;;;;99.43;46.78;;;9.20;80.90;;;;;;4972396;28;20054;-77
2021/03/06 10:32:53;;;;;;;8.75;5.35;;;10.20;81.40;;;;;;4948796;28;20038;-75
2021/03/06 10:35:43;;;;;;;6.63;4.65;;;9.20;77.50;;;;;;4963029;28;20094;-75
2021/03/06 10:38:31;;;;;;;6.40;4.60;;;8.40;80.00;;;;;;4964013;28;20030;-76
2021/03/06 10:41:01;;;;;;;12.88;4.72;;;8.30;81.00;;;;;;4952159;28;20708;-76
2021/03/06 10:43:28;;;;;;;6.63;4.70;;;8.60;80.70;;;;;;4960178;28;20026;-75
2021/03/06 10:45:54;;;;;;;8.80;4.90;;;8.50;81.30;;;;;;4960360;28;20220;-74
2021/03/06 10:48:33;;;;;;;6.70;5.18;;;8.50;83.40;;;;;;4965559;28;20035;-74
2021/03/06 10:50:58;;;;;;;7.35;5.45;;;8.50;83.00;;;;;;4958364;28;20054;-75
2021/03/06 10:53:25;;;;;;;10.38;5.32;;;9.20;83.70;;;;;;4963428;28;20408;-75
2021/03/06 10:55:52;;;;;;;8.88;5.95;;;8.60;78.20;;;;;;4958839;28;20381;-75
2021/03/06 10:58:39;;;;;;;9.45;5.63;;;8.60;78.20;;;;;;4969593;28;20030;-76
2021/03/06 11:01:05;;;;;;;8.25;5.07;;;8.10;81.10;;;;;;4966106;28;20035;-77
2021/03/06 11:03:39;;;;;;;7.05;5.57;;;8.00;81.30;;;;;;4964698;28;20385;-77
2021/03/06 11:06:06;;;;;;;14.60;8.20;;;7.90;80.70;;;;;;4951150;28;20678;-76
2021/03/06 11:08:33;;;;;;;10.02;5.90;;;8.20;81.50;;;;;;4954211;28;20149;-76
2021/03/06 11:10:59;;;;;;;7.55;5.78;;;8.10;79.60;;;;;;4969555;28;20109;-75
2021/03/06 11:13:44;;;;;;;9.32;5.30;;;8.20;78.60;;;;;;4952232;28;20062;-74
2021/03/06 11:16:12;;;;;;;6.65;5.13;;;8.00;79.50;;;;;;4962637;28;20039;-74
2021/03/06 11:18:41;;;;;;;8.20;6.20;;;7.80;79.50;;;;;;4951287;28;20027;-76
2021/03/06 11:21:12;;;;;;;7.28;5.75;;;8.00;79.50;;;;;;4954443;28;20031;-76
2021/03/06 11:23:41;;;;;;;8.43;6.38;;;8.30;78.40;;;;;;4970282;28;20809;-76
2021/03/06 11:26:07;;;;;;;6.80;5.55;;;8.40;78.90;;;;;;4953375;28;20039;-74
2021/03/06 11:28:33;;;;;;;7.28;5.00;;;8.40;77.00;;;;;;4960701;28;20381;-74
2021/03/06 11:31:00;;;;;;;7.88;5.82;;;8.20;78.10;;;;;;4964214;28;20034;-74
2021/03/06 11:33:27;;;;;;;8.45;5.82;;;8.00;79.20;;;;;;4963368;28;20023;-74
2021/03/06 11:35:53;;;;;;;6.40;4.70;;;7.90;79.10;;;;;;4956594;28;20031;-73
2021/03/06 11:38:22;;;;;;;6.70;5.05;;;8.20;77.40;;;;;;4951260;28;20019;-74
2021/03/06 11:40:49;;;;;;;7.10;5.20;;;8.20;77.20;;;;;;4961617;28;20035;-75
2021/03/06 11:43:16;;;;;;;9.88;5.10;;;8.30;77.10;;;;;;4972961;28;20023;-75
2021/03/06 11:45:44;;;;;;;6.60;5.40;;;8.30;77.30;;;;;;4949034;28;20058;-75
2021/03/06 11:48:10;;;;;;;10.45;5.35;;;8.40;76.40;;;;;;4974088;28;20109;-76
2021/03/06 11:50:44;;;;;;;9.85;5.45;;;8.60;75.50;;;;;;4960241;28;20027;-76
2021/03/06 11:53:10;;;;;;;8.57;6.07;;;8.60;76.10;;;;;;4965357;28;20488;-76
2021/03/06 11:55:36;;;;;;;6.97;5.20;;;8.50;77.70;;;;;;4957611;28;20037;-76
2021/03/06 11:58:02;;;;;;;6.80;5.03;;;8.60;77.50;;;;;;4947190;28;20098;-76
2021/03/06 12:00:30;;;;;;;11.30;7.75;;;8.80;77.80;;;;;;4971916;28;20073;-76
2021/03/06 12:02:56;;;;;;;23.92;14.75;;;9.60;76.50;;;;;;4973878;28;20018;-76
2021/03/06 12:05:23;;;;;;;8.77;6.78;;;10.10;85.30;;;;;;4967646;28;20039;-75
2021/03/06 12:07:51;;;;;;;6.85;5.22;;;9.50;75.30;;;;;;4959582;28;20019;-77
2021/03/06 12:10:24;;;;;;;9.00;5.05;;;9.70;72.40;;;;;;4968144;28;20027;-75
2021/03/06 12:12:50;;;;;;;7.85;4.85;;;9.50;71.40;;;;;;4939951;28;20344;-76
2021/03/06 12:15:17;;;;;;;8.88;5.30;;;9.40;72.30;;;;;;4942904;29;20492;-75
2021/03/06 12:17:44;;;;;;;9.80;5.10;;;9.00;74.30;;;;;;4936941;29;20425;-75
2021/03/06 12:20:10;;;;;;;7.55;5.47;;;8.90;75.70;;;;;;4938230;28;20147;-75
2021/03/06 12:22:37;;;;;;;8.07;5.45;;;9.10;73.80;;;;;;4960901;28;20539;-76
2021/03/06 12:25:07;;;;;;;7.10;5.43;;;9.10;73.50;;;;;;4954198;28;20030;-75
2021/03/06 12:27:35;;;;;;;7.75;5.70;;;9.10;73.10;;;;;;4955395;28;20026;-75
2021/03/06 12:30:01;;;;;;;7.13;5.43;;;9.40;73.50;;;;;;4974341;28;20080;-75
2021/03/06 12:32:27;;;;;;;6.55;5.22;;;9.70;72.90;;;;;;4954426;28;20034;-75
2021/03/06 12:34:52;;;;;;;7.57;5.95;;;9.80;72.50;;;;;;4964572;28;20035;-75
2021/03/06 12:37:18;;;;;;;11.68;7.72;;;10.40;71.20;;;;;;4955086;29;20481;-76
2021/03/06 12:39:44;;;;;;;33.08;20.50;;;10.40;70.20;;;;;;4968144;28;20358;-75
2021/03/06 12:42:15;;;;;;;22.88;12.43;;;11.00;73.30;;;;;;4973411;28;20023;-75
2021/03/06 12:44:41;;;;;;;51.80;30.73;;;11.30;66.80;;;;;;4974221;28;20174;-75
2021/03/06 12:47:06;;;;;;;23.15;14.13;;;11.60;68.20;;;;;;4956926;28;20117;-75
2021/03/06 12:49:32;;;;;;;10.40;5.50;;;11.70;64.10;;;;;;4967628;28;20027;-75
2021/03/06 12:51:58;;;;;;;6.70;4.88;;;10.50;64.80;;;;;;4954507;28;20035;-75
2021/03/06 12:54:26;;;;;;;6.65;4.78;;;10.70;63.80;;;;;;4957024;28;20094;-76
2021/03/06 12:56:51;;;;;;;7.93;5.50;;;10.30;65.10;;;;;;4959289;28;20128;-76
2021/03/06 12:59:17;;;;;;;9.65;5.70;;;10.60;65.30;;;;;;4955456;29;20036;-75